Time;durP1;ratioP1;P1;durP2;ratioP2;P2;SDS_P1;SDS_P2;PMS_P1;PMS_P2;Temp;Humidity;BMP_temperature;BMP_pressure;BME280_temperature;BME280_humidity;BME280_pressure;Samples;Min_cycle;Max_cycle;Signal;HPM_P1;HPM_P2
2023/11/25 00:00:47;;;;;;;23.20;4.50;;;;;;;2.49;100.00;101189.88;5042382;28;20030;-73
2023/11/25 00:03:12;;;;;;;25.10;4.43;;;;;;;2.53;100.00;101194.41;5044415;28;20036;-76
2023/11/25 00:05:38;;;;;;;23.67;4.50;;;;;;;2.49;100.00;101196.00;5043548;28;20021;-73
2023/11/25 00:08:04;;;;;;;25.38;4.57;;;;;;;2.47;100.00;101197.63;5042806;28;20057;-75
2023/11/25 00:10:29;;;;;;;23.60;4.57;;;;;;;2.48;100.00;101193.31;5043650;28;20025;-75
2023/11/25 00:12:55;;;;;;;21.27;3.92;;;;;;;2.44;100.00;101202.72;5041721;28;20033;-75
2023/11/25 00:15:23;;;;;;;21.58;3.72;;;;;;;2.35;100.00;101195.38;5045017;28;20119;-74
2023/11/25 00:17:49;;;;;;;22.45;3.70;;;;;;;2.34;100.00;101201.41;5041482;28;20136;-75
2023/11/25 00:20:15;;;;;;;20.98;3.85;;;;;;;2.35;100.00;101195.38;5043941;28;20029;-75
2023/11/25 00:22:41;;;;;;;19.65;3.42;;;;;;;2.26;100.00;101187.16;5042848;28;20045;-74
2023/11/25 00:25:08;;;;;;;20.77;3.80;;;;;;;2.17;100.00;101178.91;5043111;28;20037;-74
2023/11/25 00:27:36;;;;;;;22.17;4.05;;;;;;;2.03;100.00;101178.34;5043863;28;20028;-75
2023/11/25 00:30:05;;;;;;;24.00;3.90;;;;;;;1.87;100.00;101175.03;5042071;28;20104;-74
2023/11/25 00:32:31;;;;;;;22.23;4.00;;;;;;;1.68;100.00;101178.53;5044301;28;20029;-74
2023/11/25 00:34:56;;;;;;;21.70;3.70;;;;;;;1.55;100.00;101179.66;5041379;28;20032;-75
2023/11/25 00:37:22;;;;;;;20.13;3.90;;;;;;;1.44;100.00;101180.00;5044714;28;20029;-75
2023/11/25 00:39:47;;;;;;;21.70;4.22;;;;;;;1.48;100.00;101181.91;5041833;28;20431;-74
2023/11/25 00:42:14;;;;;;;22.92;4.10;;;;;;;1.52;100.00;101179.53;5043505;28;20059;-74
2023/11/25 00:44:39;;;;;;;24.50;4.22;;;;;;;1.57;100.00;101184.94;5042764;28;20065;-75
2023/11/25 00:47:11;;;;;;;21.83;3.70;;;;;;;1.62;100.00;101188.66;5042751;28;20455;-73
2023/11/25 00:49:38;;;;;;;23.10;4.23;;;;;;;1.66;100.00;101187.09;5043372;28;20029;-73
2023/11/25 00:52:04;;;;;;;20.83;4.00;;;;;;;1.59;100.00;101182.41;5041986;28;20428;-72
2023/11/25 00:54:30;;;;;;;25.13;4.20;;;;;;;1.62;100.00;101180.84;5043823;28;20060;-72
2023/11/25 00:56:57;;;;;;;23.40;3.80;;;;;;;1.65;100.00;101178.38;5041244;28;20121;-73
2023/11/25 00:59:23;;;;;;;22.45;4.20;;;;;;;1.61;100.00;101179.06;5037108;28;20037;-72
2023/11/25 01:01:48;;;;;;;22.95;3.97;;;;;;;1.60;100.00;101169.44;5043986;28;20366;-73
2023/11/25 01:04:14;;;;;;;21.75;4.07;;;;;;;1.65;100.00;101175.78;5041898;28;20100;-72
2023/11/25 01:06:47;;;;;;;22.65;3.80;;;;;;;1.67;100.00;101173.25;5042629;28;20017;-74
2023/11/25 01:09:15;;;;;;;21.73;3.60;;;;;;;1.76;100.00;101178.84;5042242;28;20033;-73
2023/11/25 01:11:41;;;;;;;22.30;3.85;;;;;;;1.78;100.00;101182.44;5042850;28;20108;-73
2023/11/25 01:14:08;;;;;;;22.40;4.10;;;;;;;1.72;100.00;101180.44;5042771;28;20107;-73
2023/11/25 01:16:33;;;;;;;24.63;3.90;;;;;;;1.74;100.00;101180.50;5041765;28;20026;-73
2023/11/25 01:18:58;;;;;;;22.27;3.47;;;;;;;1.84;100.00;101190.53;5043834;28;20403;-73
2023/11/25 01:21:24;;;;;;;21.45;3.97;;;;;;;2.00;100.00;101189.50;5040772;28;20366;-72
2023/11/25 01:23:49;;;;;;;21.08;3.67;;;;;;;1.99;100.00;101194.66;5043966;28;20083;-72
2023/11/25 01:26:14;;;;;;;19.10;3.60;;;;;;;1.99;100.00;101194.66;5040346;28;20025;-71
2023/11/25 01:28:42;;;;;;;20.15;3.40;;;;;;;2.03;100.00;101187.03;5041253;28;20025;-74
2023/11/25 01:31:08;;;;;;;20.30;3.40;;;;;;;2.05;100.00;101198.44;5046237;28;20400;-75
2023/11/25 01:33:33;;;;;;;22.65;3.60;;;;;;;1.99;100.00;101198.16;5045613;28;20496;-76
2023/11/25 01:35:58;;;;;;;22.70;3.45;;;;;;;1.91;100.00;101199.53;5047860;28;20040;-75
2023/11/25 01:38:24;;;;;;;18.85;3.30;;;;;;;1.90;100.00;101198.63;5044794;28;20470;-73
2023/11/25 01:40:52;;;;;;;22.13;3.53;;;;;;;2.00;100.00;101188.63;5047543;28;20547;-76
2023/11/25 01:43:21;;;;;;;20.55;3.33;;;;;;;2.21;100.00;101188.66;5045167;28;20426;-72
2023/11/25 01:45:49;;;;;;;20.40;3.60;;;;;;;2.29;100.00;101187.31;5047380;28;20064;-73
2023/11/25 01:48:15;;;;;;;22.08;3.72;;;;;;;2.27;100.00;101194.16;5045477;28;20036;-73
2023/11/25 01:50:40;;;;;;;19.83;3.25;;;;;;;2.28;100.00;101195.06;5046212;28;20365;-73
2023/11/25 01:53:07;;;;;;;20.40;3.35;;;;;;;2.21;100.00;101192.19;5046597;28;20040;-75
2023/11/25 01:55:33;;;;;;;21.75;3.45;;;;;;;2.10;100.00;101201.25;5045077;28;20065;-76
2023/11/25 01:57:59;;;;;;;21.33;3.83;;;;;;;2.05;100.00;101201.06;5047641;28;20075;-73
2023/11/25 02:00:25;;;;;;;22.25;4.10;;;;;;;2.12;100.00;101191.78;5044409;28;20045;-76
2023/11/25 02:02:50;;;;;;;25.05;4.38;;;;;;;2.22;100.00;101186.13;5047261;28;20022;-73
2023/11/25 02:05:16;;;;;;;21.88;3.80;;;;;;;2.19;100.00;101190.34;5045192;28;20112;-75
2023/11/25 02:07:42;;;;;;;20.73;3.55;;;;;;;2.14;100.00;101199.66;5045989;28;20477;-74
2023/11/25 02:10:10;;;;;;;20.90;3.40;;;;;;;2.03;100.00;101194.88;5044780;28;20064;-75
2023/11/25 02:12:38;;;;;;;20.40;3.33;;;;;;;1.97;100.00;101197.19;5045658;28;20388;-75
2023/11/25 02:15:10;;;;;;;22.25;3.42;;;;;;;1.81;100.00;101199.94;5046689;28;20033;-75
2023/11/25 02:17:36;;;;;;;22.45;3.60;;;;;;;1.64;100.00;101194.84;5044952;28;20540;-74
2023/11/25 02:20:03;;;;;;;22.35;3.65;;;;;;;1.56;100.00;101193.59;5046662;28;20115;-74
2023/11/25 02:22:29;;;;;;;22.70;3.60;;;;;;;1.54;100.00;101188.31;5044357;28;20034;-75
2023/11/25 02:24:54;;;;;;;20.48;3.50;;;;;;;1.59;100.00;101198.03;5047213;28;20067;-75
2023/11/25 02:27:19;;;;;;;21.80;3.67;;;;;;;1.55;100.00;101194.41;5044099;28;20033;-74
2023/11/25 02:29:45;;;;;;;21.98;3.20;;;;;;;1.42;100.00;101197.28;5045028;28;20029;-74
2023/11/25 02:32:10;;;;;;;21.63;3.72;;;;;;;1.50;100.00;101201.13;5045302;28;20052;-74
2023/11/25 02:34:36;;;;;;;19.48;3.38;;;;;;;1.45;100.00;101200.91;5044952;28;20033;-75
2023/11/25 02:37:01;;;;;;;21.20;3.28;;;;;;;1.42;100.00;101197.28;5046422;28;20029;-75
2023/11/25 02:39:28;;;;;;;20.90;3.50;;;;;;;1.36;100.00;101200.47;5043434;28;20033;-75
2023/11/25 02:41:54;;;;;;;21.50;4.00;;;;;;;1.33;100.00;101198.63;5039562;28;20052;-75
2023/11/25 02:44:20;;;;;;;22.00;3.53;;;;;;;1.34;100.00;101199.50;5046362;28;20021;-75
2023/11/25 02:46:48;;;;;;;22.52;3.78;;;;;;;1.35;100.00;101210.00;5044225;28;20036;-75
2023/11/25 02:49:14;;;;;;;19.10;3.65;;;;;;;1.34;100.00;101209.91;5045706;28;20030;-73
2023/11/25 02:51:49;;;;;;;21.65;3.60;;;;;;;1.35;100.00;101206.50;5045052;28;20108;-71
2023/11/25 02:54:15;;;;;;;21.02;3.33;;;;;;;1.38;100.00;101207.56;5045465;28;20077;-73
2023/11/25 02:56:40;;;;;;;23.20;3.50;;;;;;;1.35;100.00;101196.09;5043590;28;20052;-72
2023/11/25 02:59:07;;;;;;;22.30;3.67;;;;;;;1.27;100.00;101202.63;5044916;28;20068;-73
2023/11/25 03:01:33;;;;;;;19.73;3.20;;;;;;;1.16;100.00;101204.72;5045908;28;20614;-71
2023/11/25 03:04:04;;;;;;;19.40;3.58;;;;;;;1.04;100.00;101216.31;5043120;28;20096;-72
2023/11/25 03:06:30;;;;;;;19.88;3.35;;;;;;;0.96;100.00;101212.47;5046461;28;20074;-73
2023/11/25 03:08:56;;;;;;;21.90;3.55;;;;;;;0.88;100.00;101208.59;5042840;28;20026;-73
2023/11/25 03:11:22;;;;;;;20.58;3.67;;;;;;;0.86;100.00;101210.25;5046286;28;20126;-73
2023/11/25 03:13:48;;;;;;;23.15;3.70;;;;;;;0.79;100.00;101208.16;5043803;28;20080;-73
2023/11/25 03:16:14;;;;;;;22.45;3.78;;;;;;;0.73;100.00;101206.13;5044913;28;20032;-73
2023/11/25 03:18:39;;;;;;;21.30;3.45;;;;;;;0.69;100.00;101210.28;5044492;28;20033;-74
2023/11/25 03:21:06;;;;;;;20.27;3.55;;;;;;;0.62;100.00;101202.97;5043992;28;20041;-73
2023/11/25 03:23:31;;;;;;;21.67;3.47;;;;;;;0.50;100.00;101203.25;5045691;28;20083;-73
2023/11/25 03:25:57;;;;;;;20.85;3.72;;;;;;;0.45;100.00;101201.22;5042910;28;20025;-71
2023/11/25 03:28:23;;;;;;;20.92;3.33;;;;;;;0.43;100.00;101197.66;5046081;28;20040;-73
2023/11/25 03:30:49;;;;;;;20.90;3.80;;;;;;;0.40;100.00;101201.00;5043177;28;20120;-73
2023/11/25 03:33:14;;;;;;;22.30;3.72;;;;;;;0.38;100.00;101193.91;5044911;28;20069;-75
2023/11/25 03:35:40;;;;;;;20.35;3.92;;;;;;;0.44;100.00;101199.47;5044277;28;20124;-75
2023/11/25 03:38:05;;;;;;;21.27;4.15;;;;;;;0.49;100.00;101203.16;5043398;28;20104;-75
2023/11/25 03:40:31;;;;;;;23.95;3.95;;;;;;;0.47;100.00;101202.22;5045473;28;20037;-76
2023/11/25 03:42:58;;;;;;;22.45;3.85;;;;;;;0.45;100.00;101202.13;5042445;28;20084;-76
2023/11/25 03:45:23;;;;;;;24.10;3.80;;;;;;;0.42;100.00;101195.88;5045959;28;20120;-73
2023/11/25 03:47:51;;;;;;;23.42;4.05;;;;;;;0.45;100.00;101198.63;5041849;28;20116;-73
2023/11/25 03:50:16;;;;;;;22.80;3.83;;;;;;;0.52;100.00;101201.63;5044682;28;20057;-73
2023/11/25 03:52:42;;;;;;;22.38;4.13;;;;;;;0.57;100.00;101203.56;5042749;28;20116;-74
2023/11/25 03:55:09;;;;;;;24.10;3.88;;;;;;;0.73;100.00;101202.63;5043360;28;20508;-74
2023/11/25 03:57:35;;;;;;;23.98;4.22;;;;;;;0.88;100.00;101200.78;5044499;28;20079;-75
2023/11/25 04:00:01;;;;;;;22.60;4.05;;;;;;;1.03;100.00;101193.75;5042266;28;20060;-75
2023/11/25 04:02:27;;;;;;;23.10;3.75;;;;;;;1.14;100.00;101198.56;5045676;28;20033;-72
2023/11/25 04:04:52;;;;;;;21.80;3.75;;;;;;;1.22;100.00;101199.81;5042203;28;20029;-75
2023/11/25 04:07:18;;;;;;;25.02;4.00;;;;;;;1.26;100.00;101199.16;5044551;28;20468;-73
2023/11/25 04:09:43;;;;;;;23.20;3.85;;;;;;;1.27;100.00;101203.53;5043337;28;20471;-76
2023/11/25 04:12:10;;;;;;;23.40;3.88;;;;;;;1.29;100.00;101196.69;5043303;28;20029;-73
2023/11/25 04:14:35;;;;;;;23.65;3.92;;;;;;;1.33;100.00;101203.81;5044165;28;20040;-71
2023/11/25 04:17:03;;;;;;;22.02;3.97;;;;;;;1.30;100.00;101198.47;5042329;28;20034;-72
2023/11/25 04:19:29;;;;;;;23.10;4.07;;;;;;;1.23;100.00;101198.13;5045039;28;20395;-72
2023/11/25 04:21:58;;;;;;;22.98;3.80;;;;;;;1.17;100.00;101189.19;5037775;28;20034;-71
2023/11/25 04:24:26;;;;;;;23.55;3.95;;;;;;;1.08;100.00;101193.03;5038002;28;20057;-73
2023/11/25 04:26:51;;;;;;;22.92;3.90;;;;;;;1.00;100.00;101188.34;5043720;28;20112;-73
2023/11/25 04:29:17;;;;;;;23.73;4.03;;;;;;;0.95;100.00;101195.06;5042383;28;20072;-73
2023/11/25 04:31:42;;;;;;;22.65;3.90;;;;;;;0.93;100.00;101191.47;5043434;28;20045;-73
2023/11/25 04:34:07;;;;;;;23.17;4.07;;;;;;;0.95;100.00;101194.19;5043532;28;20029;-72
2023/11/25 04:36:35;;;;;;;23.77;4.30;;;;;;;0.96;100.00;101206.34;5041725;28;20109;-72
2023/11/25 04:39:00;;;;;;;25.98;4.55;;;;;;;0.97;100.00;101208.16;5044695;28;20488;-73
2023/11/25 04:41:26;;;;;;;22.70;3.95;;;;;;;1.00;100.00;101203.97;5041162;28;20037;-73
2023/11/25 04:43:52;;;;;;;24.02;4.10;;;;;;;1.06;100.00;101198.19;5044325;28;20035;-75
2023/11/25 04:46:17;;;;;;;21.63;3.83;;;;;;;1.13;100.00;101205.47;5042299;28;20108;-73
2023/11/25 04:48:42;;;;;;;22.63;3.90;;;;;;;1.22;100.00;101207.63;5042963;28;20033;-72
2023/11/25 04:51:09;;;;;;;22.75;3.90;;;;;;;1.30;100.00;101208.00;5043474;28;20025;-72
2023/11/25 04:53:34;;;;;;;23.02;4.05;;;;;;;1.37;100.00;101199.66;5041626;28;20052;-73
2023/11/25 04:55:59;;;;;;;23.55;4.28;;;;;;;1.45;100.00;101202.63;5044376;28;20115;-73
2023/11/25 04:58:25;;;;;;;22.60;4.10;;;;;;;1.52;100.00;101223.81;5041283;28;20358;-73
2023/11/25 05:00:51;;;;;;;23.35;3.75;;;;;;;1.56;100.00;101228.38;5043834;28;20095;-73
2023/11/25 05:03:16;;;;;;;23.42;4.20;;;;;;;1.65;100.00;101243.53;5041873;28;20037;-73
2023/11/25 05:05:41;;;;;;;24.35;3.92;;;;;;;1.76;100.00;101264.00;5042809;28;20021;-73
2023/11/25 05:08:07;;;;;;;23.95;4.18;;;;;;;1.82;100.00;101277.31;5041854;28;20036;-74
2023/11/25 05:10:33;;;;;;;20.63;3.53;;;;;;;2.06;100.00;101257.59;5041626;28;20078;-73
2023/11/25 05:12:59;;;;;;;23.48;4.13;;;;;;;2.20;100.00;101241.66;5044666;28;20033;-72
2023/11/25 05:15:25;;;;;;;22.60;4.05;;;;;;;2.11;100.00;101233.44;5036871;28;20468;-72
2023/11/25 05:17:53;;;;;;;25.58;4.15;;;;;;;2.04;100.00;101227.03;5043581;28;20586;-71
2023/11/25 05:20:19;;;;;;;24.73;4.18;;;;;;;2.02;100.00;101234.78;5041608;28;20028;-73
2023/11/25 05:22:45;;;;;;;21.85;3.53;;;;;;;2.00;100.00;101236.44;5042800;28;20034;-74
2023/11/25 05:25:10;;;;;;;24.38;4.28;;;;;;;1.97;100.00;101227.63;5042554;28;20025;-73
2023/11/25 05:27:36;;;;;;;23.45;4.18;;;;;;;1.94;100.00;101230.06;5041837;28;20037;-74
2023/11/25 05:30:02;;;;;;;22.02;4.00;;;;;;;1.93;100.00;101234.38;5043997;28;20383;-74
2023/11/25 05:32:28;;;;;;;24.55;4.07;;;;;;;2.04;100.00;101225.34;5040654;28;20436;-75
2023/11/25 05:34:53;;;;;;;22.70;3.95;;;;;;;2.12;100.00;101224.78;5044119;28;20029;-75
2023/11/25 05:37:19;;;;;;;22.58;4.13;;;;;;;2.16;100.00;101225.00;5041420;28;20515;-75
2023/11/25 05:39:45;;;;;;;22.95;4.28;;;;;;;2.13;100.00;101214.44;5042809;28;20039;-74
2023/11/25 05:42:11;;;;;;;22.80;3.88;;;;;;;2.15;100.00;101225.81;5042537;28;20531;-75
2023/11/25 05:44:37;;;;;;;26.48;4.30;;;;;;;2.15;100.00;101233.63;5041479;28;20112;-75
2023/11/25 05:47:02;;;;;;;21.55;3.70;;;;;;;2.23;100.00;101252.25;5042496;28;20087;-75
2023/11/25 05:49:28;;;;;;;23.45;4.00;;;;;;;2.30;100.00;101233.44;5040494;28;20064;-75
2023/11/25 05:51:54;;;;;;;23.85;4.03;;;;;;;2.18;100.00;101225.94;5043933;28;20036;-75
2023/11/25 05:54:19;;;;;;;24.77;4.53;;;;;;;2.12;100.00;101214.38;5041205;28;20431;-75
2023/11/25 05:56:48;;;;;;;24.73;4.20;;;;;;;2.03;100.00;101202.69;5042407;28;20121;-75
2023/11/25 05:59:14;;;;;;;25.80;4.68;;;;;;;1.95;100.00;101206.66;5041853;28;20025;-74
2023/11/25 06:01:41;;;;;;;26.23;4.20;;;;;;;1.87;100.00;101205.44;5041911;28;20477;-75
2023/11/25 06:04:07;;;;;;;26.40;4.20;;;;;;;1.82;100.00;101209.53;5042805;28;20029;-75
2023/11/25 06:06:32;;;;;;;24.15;4.03;;;;;;;1.78;100.00;101205.91;5040738;28;20032;-74
2023/11/25 06:08:58;;;;;;;24.67;4.10;;;;;;;1.70;100.00;101208.16;5043868;28;20431;-75
2023/11/25 06:11:32;;;;;;;24.15;4.32;;;;;;;1.64;100.00;101206.97;5040771;28;20117;-73
2023/11/25 06:13:58;;;;;;;24.45;4.10;;;;;;;1.52;100.00;101209.91;5036579;28;20021;-71
2023/11/25 06:16:29;;;;;;;24.55;4.32;;;;;;;1.39;100.00;101208.44;5045537;28;20029;-73
2023/11/25 06:18:54;;;;;;;23.20;3.95;;;;;;;1.26;100.00;101196.53;5044210;28;20508;-73
2023/11/25 06:21:20;;;;;;;24.33;4.00;;;;;;;1.25;100.00;101194.75;5046444;28;20041;-72
2023/11/25 06:23:45;;;;;;;24.75;4.45;;;;;;;1.24;100.00;101186.84;5045329;28;20527;-72
2023/11/25 06:26:11;;;;;;;25.30;4.30;;;;;;;1.21;100.00;101193.72;5045197;28;20075;-72
2023/11/25 06:28:41;;;;;;;25.27;4.45;;;;;;;1.22;100.00;101186.78;5046228;28;20031;-73
2023/11/25 06:31:07;;;;;;;26.15;4.70;;;;;;;1.25;100.00;101189.53;5044768;28;20021;-73
2023/11/25 06:33:33;;;;;;;30.20;5.47;;;;;;;1.30;100.00;101197.59;5047109;28;20437;-73
2023/11/25 06:35:59;;;;;;;22.63;4.10;;;;;;;1.30;100.00;101201.06;5043553;28;20116;-71
2023/11/25 06:38:24;;;;;;;25.67;4.32;;;;;;;1.37;100.00;101218.78;5047021;28;20068;-73
2023/11/25 06:40:50;;;;;;;25.55;4.70;;;;;;;1.50;100.00;101216.75;5044183;28;20044;-72
2023/11/25 06:43:15;;;;;;;23.40;4.65;;;;;;;1.54;100.00;101213.47;5045495;28;20026;-71
2023/11/25 06:45:41;;;;;;;24.67;4.25;;;;;;;1.55;100.00;101199.63;5045765;28;20503;-73
2023/11/25 06:48:07;;;;;;;23.30;4.18;;;;;;;1.60;100.00;101192.91;5044259;28;20503;-73
2023/11/25 06:50:34;;;;;;;21.85;4.13;;;;;;;1.63;100.00;101192.16;5045063;28;20037;-72
2023/11/25 06:52:59;;;;;;;26.08;4.95;;;;;;;1.66;100.00;101200.13;5043339;28;20030;-73
2023/11/25 06:55:25;;;;;;;24.85;4.38;;;;;;;1.73;100.00;101210.91;5046533;28;20089;-72
2023/11/25 06:57:50;;;;;;;21.60;4.10;;;;;;;1.75;100.00;101216.19;5043736;28;20116;-73
2023/11/25 07:00:16;;;;;;;22.83;4.22;;;;;;;1.78;100.00;101205.00;5045305;28;20037;-73
2023/11/25 07:02:42;;;;;;;22.42;3.95;;;;;;;1.78;100.00;101197.16;5045190;28;20238;-74
2023/11/25 07:05:08;;;;;;;25.30;4.38;;;;;;;1.81;100.00;101200.84;5042701;28;20076;-72
2023/11/25 07:07:34;;;;;;;23.08;3.95;;;;;;;1.87;100.00;101200.22;5046187;28;20021;-71
2023/11/25 07:09:59;;;;;;;20.83;3.67;;;;;;;1.91;100.00;101183.91;5042972;28;20503;-74
2023/11/25 07:12:24;;;;;;;22.35;3.88;;;;;;;1.93;100.00;101187.44;5046242;28;20033;-72
2023/11/25 07:14:50;;;;;;;20.35;3.85;;;;;;;1.92;100.00;101180.44;5044076;28;20112;-73
2023/11/25 07:17:15;;;;;;;24.48;4.00;;;;;;;1.91;100.00;101179.56;5044668;28;20057;-73
2023/11/25 07:19:42;;;;;;;23.48;3.88;;;;;;;1.89;100.00;101175.09;5044897;28;20128;-71
2023/11/25 07:22:11;;;;;;;22.35;3.78;;;;;;;1.88;100.00;101178.56;5043812;28;20075;-71
2023/11/25 07:24:39;;;;;;;23.15;3.55;;;;;;;1.82;100.00;101178.25;5045420;28;20043;-74
2023/11/25 07:27:08;;;;;;;20.42;3.80;;;;;;;1.80;100.00;101179.91;5041934;28;20419;-71
2023/11/25 07:29:34;;;;;;;21.55;3.70;;;;;;;1.73;100.00;101171.81;5045888;28;20029;-73
2023/11/25 07:32:00;;;;;;;21.48;3.75;;;;;;;1.70;100.00;101173.38;5042542;28;20025;-71
2023/11/25 07:34:28;;;;;;;21.77;3.88;;;;;;;1.63;100.00;101167.00;5045829;28;20079;-73
2023/11/25 07:36:55;;;;;;;19.63;3.67;;;;;;;1.66;100.00;101161.00;5042909;28;20017;-73
2023/11/25 07:39:22;;;;;;;19.08;3.83;;;;;;;1.65;100.00;101170.56;5045032;28;20484;-72
2023/11/25 07:41:53;;;;;;;20.98;3.95;;;;;;;1.70;100.00;101184.72;5043537;28;20124;-72
2023/11/25 07:44:19;;;;;;;20.38;3.50;;;;;;;1.82;100.00;101183.47;5044931;28;20369;-74
2023/11/25 07:46:45;;;;;;;21.00;3.70;;;;;;;1.90;100.00;101189.94;5042532;28;20025;-73
2023/11/25 07:49:10;;;;;;;19.83;3.65;;;;;;;1.97;100.00;101192.00;5043464;28;20036;-73
2023/11/25 07:51:36;;;;;;;23.00;3.47;;;;;;;2.06;100.00;101188.91;5043902;28;20063;-73
2023/11/25 07:54:01;;;;;;;21.05;3.45;;;;;;;2.15;100.00;101201.44;5042183;28;20042;-75
2023/11/25 07:56:27;;;;;;;19.58;3.50;;;;;;;2.16;100.00;101206.72;5045519;28;20037;-75
2023/11/25 07:58:52;;;;;;;19.45;3.50;;;;;;;2.26;100.00;101202.81;5041534;28;20100;-73
2023/11/25 08:01:17;;;;;;;20.88;3.38;;;;;;;2.22;100.00;101180.91;5044209;28;20141;-76
2023/11/25 08:03:43;;;;;;;21.92;3.38;;;;;;;2.20;100.00;101184.28;5043730;28;20104;-73
2023/11/25 08:06:08;;;;;;;20.52;3.40;;;;;;;2.22;100.00;101182.63;5043026;28;20120;-75
2023/11/25 08:08:33;;;;;;;21.90;3.95;;;;;;;2.24;100.00;101171.44;5045027;28;20104;-76
2023/11/25 08:10:59;;;;;;;20.98;3.67;;;;;;;2.32;100.00;101161.34;5041854;28;20438;-73
2023/11/25 08:13:24;;;;;;;21.55;3.67;;;;;;;2.37;100.00;101162.41;5044955;28;20033;-73
2023/11/25 08:15:50;;;;;;;19.63;3.20;;;;;;;2.43;100.00;101154.88;5042533;28;20021;-73
2023/11/25 08:18:16;;;;;;;22.38;3.42;;;;;;;2.48;100.00;101164.63;5043909;28;20025;-75
2023/11/25 08:20:42;;;;;;;19.60;3.30;;;;;;;2.58;100.00;101174.59;5043453;28;20078;-75
2023/11/25 08:23:07;;;;;;;19.65;3.20;;;;;;;2.63;100.00;101173.06;5042432;28;20510;-74
2023/11/25 08:25:33;;;;;;;18.63;2.92;;;;;;;2.73;100.00;101174.34;5044962;28;20112;-73
2023/11/25 08:27:58;;;;;;;19.17;3.20;;;;;;;2.75;100.00;101178.81;5041461;28;20113;-75
2023/11/25 08:30:24;;;;;;;17.38;3.20;;;;;;;2.76;100.00;101180.56;5044474;28;20059;-76
2023/11/25 08:32:49;;;;;;;22.15;3.28;;;;;;;2.69;100.00;101180.28;5042499;28;20032;-75
2023/11/25 08:35:15;;;;;;;15.82;3.40;;;;;;;2.77;100.00;101177.16;5043232;28;20477;-75
2023/11/25 08:37:40;;;;;;;18.17;3.13;;;;;;;3.08;100.00;101178.38;5043518;28;20029;-78
2023/11/25 08:40:15;;;;;;;14.88;2.67;;;;;;;3.20;100.00;101177.09;5041595;28;20037;-75
2023/11/25 08:42:42;;;;;;;17.30;2.70;;;;;;;3.15;100.00;101174.31;5043691;28;20025;-76
2023/11/25 08:45:08;;;;;;;14.73;2.42;;;;;;;3.08;100.00;101178.38;5042002;28;20039;-76
2023/11/25 08:47:35;;;;;;;14.00;2.47;;;;;;;2.96;100.00;101183.13;5044589;28;20531;-76
2023/11/25 08:50:01;;;;;;;14.52;2.63;;;;;;;3.09;100.00;101188.03;5041227;28;20033;-76
2023/11/25 08:52:27;;;;;;;15.93;2.60;;;;;;;3.57;100.00;101168.97;5044452;28;20083;-75
2023/11/25 08:54:53;;;;;;;16.42;2.30;;;;;;;3.80;100.00;101172.47;5041737;28;20049;-76
2023/11/25 08:57:19;;;;;;;16.80;2.60;;;;;;;4.06;100.00;101171.63;5043508;28;20472;-75
2023/11/25 08:59:46;;;;;;;15.23;2.53;;;;;;;4.32;100.00;101188.25;5042521;28;20053;-76
2023/11/25 09:02:12;;;;;;;19.67;2.80;;;;;;;4.25;100.00;101175.78;5042572;28;20022;-76
2023/11/25 09:04:42;;;;;;;14.13;2.63;;;;;;;4.15;100.00;101177.16;5043513;28;20052;-76
2023/11/25 09:07:11;;;;;;;16.92;2.90;;;;;;;4.21;100.00;101181.72;5041989;28;20441;-75
2023/11/25 09:09:37;;;;;;;16.67;2.95;;;;;;;4.10;100.00;101174.41;5043875;28;20083;-75
2023/11/25 09:12:02;;;;;;;18.17;3.60;;;;;;;4.04;100.00;101171.56;5041195;28;20038;-75
2023/11/25 09:14:28;;;;;;;15.02;3.35;;;;;;;4.00;100.00;101175.81;5044351;28;20060;-75
2023/11/25 09:16:54;;;;;;;16.33;3.08;;;;;;;3.92;100.00;101181.59;5041335;28;20025;-75
2023/11/25 09:19:20;;;;;;;17.77;3.03;;;;;;;3.84;100.00;101179.59;5043142;28;20053;-75
2023/11/25 09:21:45;;;;;;;12.90;2.92;;;;;;;4.11;100.00;101176.19;5042347;28;20029;-75
2023/11/25 09:24:11;;;;;;;16.52;2.90;;;;;;;4.57;100.00;101168.16;5042090;28;20481;-75
2023/11/25 09:26:36;;;;;;;17.48;3.10;;;;;;;5.03;100.00;101169.69;5043617;28;20484;-75
2023/11/25 09:29:02;;;;;;;13.52;2.75;;;;;;;5.61;100.00;101174.94;5040858;28;20124;-74
2023/11/25 09:31:27;;;;;;;12.73;2.50;;;;;;;6.31;100.00;101168.22;5036921;28;20119;-72
2023/11/25 09:33:53;;;;;;;15.40;2.60;;;;;;;6.45;100.00;101164.22;5043489;28;20025;-74
2023/11/25 09:36:20;;;;;;;15.98;2.60;;;;;;;6.38;100.00;101171.91;5041727;28;20064;-73
2023/11/25 09:38:46;;;;;;;14.68;2.42;;;;;;;6.22;100.00;101173.25;5042745;28;20519;-71
2023/11/25 09:41:11;;;;;;;13.43;2.60;;;;;;;5.96;100.00;101167.22;5042944;28;20072;-74
2023/11/25 09:43:37;;;;;;;9.05;2.00;;;;;;;5.62;100.00;101161.91;5041389;28;20096;-72
2023/11/25 09:46:03;;;;;;;12.85;2.30;;;;;;;5.50;100.00;101169.38;5044350;28;20139;-72
2023/11/25 09:48:30;;;;;;;12.98;2.50;;;;;;;5.38;100.00;101167.28;5040555;28;20026;-71
2023/11/25 09:50:57;;;;;;;15.27;2.33;;;;;;;5.36;100.00;101158.50;5045591;28;20029;-74
2023/11/25 09:53:28;;;;;;;11.40;2.10;;;;;;;5.36;100.00;101175.09;5045097;28;20605;-74
2023/11/25 09:56:04;;;;;;;13.70;2.40;;;;;;;5.20;100.00;101183.34;5047324;28;20051;-71
2023/11/25 09:58:33;;;;;;;10.82;2.20;;;;;;;5.06;100.00;101185.50;5040477;28;20033;-71
2023/11/25 10:00:59;;;;;;;13.50;2.20;;;;;;;4.84;100.00;101166.47;5040510;28;20044;-74
2023/11/25 10:03:28;;;;;;;10.77;2.15;;;;;;;4.97;100.00;101153.78;5047204;28;20025;-74
2023/11/25 10:05:54;;;;;;;13.57;2.20;;;;;;;4.76;100.00;101157.47;5044611;28;20026;-74
2023/11/25 10:08:19;;;;;;;10.75;2.10;;;;;;;4.72;100.00;101151.22;5046762;28;20056;-74
2023/11/25 10:11:14;;;;;;;13.00;2.30;;;;;;;4.77;100.00;101161.84;5046090;28;20040;-73
2023/11/25 10:13:46;;;;;;;11.85;2.17;;;;;;;4.67;100.00;101154.53;5034708;28;20029;-72
2023/11/25 10:16:13;;;;;;;13.82;2.75;;;;;;;4.65;100.00;101156.22;5045121;28;20033;-72
2023/11/25 10:18:42;;;;;;;10.43;2.05;;;;;;;4.64;100.00;101160.56;5046551;28;20114;-74
2023/11/25 10:21:08;;;;;;;8.80;2.15;;;;;;;4.77;100.00;101151.38;5044651;28;20041;-72
2023/11/25 10:23:35;;;;;;;10.90;2.40;;;;;;;5.72;100.00;101158.69;5047186;28;20415;-72
2023/11/25 10:26:05;;;;;;;14.40;2.30;;;;;;;6.59;100.00;101150.56;5044126;28;20033;-74
2023/11/25 10:28:33;;;;;;;14.98;2.38;;;;;;;6.66;100.00;101141.13;5040226;28;20026;-73
2023/11/25 10:31:05;;;;;;;11.23;2.20;;;;;;;6.56;100.00;101138.22;5039964;28;20021;-72
2023/11/25 10:33:31;;;;;;;14.45;2.47;;;;;;;6.22;100.00;101139.09;5038561;28;20408;-74
2023/11/25 10:35:57;;;;;;;13.88;2.67;;;;;;;5.88;100.00;101130.25;5046835;28;20021;-73
2023/11/25 10:38:27;;;;;;;10.65;2.08;;;;;;;6.34;100.00;101131.53;5044417;28;20033;-73
2023/11/25 10:40:59;;;;;;;11.13;2.25;;;;;;;7.98;100.00;101128.25;5044897;28;20033;-77
2023/11/25 10:43:26;;;;;;;11.02;2.10;;;;;;;8.18;100.00;101151.44;5044004;28;20439;-77
2023/11/25 10:46:05;;;;;;;12.25;2.20;;;;;;;7.41;100.00;101128.81;5044906;28;20022;-77
2023/11/25 10:48:32;;;;;;;13.77;2.20;;;;;;;6.40;100.00;101136.06;5039988;28;20126;-75
2023/11/25 10:51:01;;;;;;;13.25;1.95;;;;;;;6.08;100.00;101125.59;5046766;28;20060;-77
2023/11/25 10:53:30;;;;;;;14.13;2.15;;;;;;;5.84;100.00;101126.66;5043309;28;20045;-77
2023/11/25 10:55:56;;;;;;;13.73;2.35;;;;;;;5.53;100.00;101124.88;5046534;28;20032;-76
2023/11/25 10:58:23;;;;;;;15.88;2.53;;;;;;;5.56;100.00;101127.59;5044036;28;20025;-77
2023/11/25 11:00:50;;;;;;;12.75;2.20;;;;;;;6.69;100.00;101126.28;5045216;28;20033;-77
2023/11/25 11:03:21;;;;;;;13.93;2.25;;;;;;;8.03;100.00;101126.59;5044665;28;20079;-75
2023/11/25 11:05:55;;;;;;;10.52;2.10;;;;;;;9.15;100.00;101124.13;5044849;28;20032;-76
2023/11/25 11:08:31;;;;;;;11.40;2.15;;;;;;;10.29;100.00;101119.34;5044070;28;20423;-76
2023/11/25 11:11:00;;;;;;;12.18;2.13;;;;;;;10.90;100.00;101108.44;5046194;28;20023;-77
2023/11/25 11:13:35;;;;;;;12.15;2.20;;;;;;;11.16;100.00;101105.97;5043530;28;20033;-77